Terminal Aerodrome Forecast
Issued by NWS Duluth, MN

Home | Current Version | Previous Version | Text Only | Print | Product List | Glossary On
Versions: 1 2 3 4 5 6 7 8 9 10 11 12 13 14 15
000
FTUS43 KDLH 271729
TAFDLH
TAF
KDLH 271729Z 2718/2818 14006KT P6SM VCSH BKN050
     FM272100 14006KT P6SM VCTS BKN050CB
     FM280500 00000KT 4SM BR VCTS SCT050CB
      TEMPO 2805/2809 1SM BR BKN010
     FM280900 00000KT 3SM BR VCSH OVC005
      TEMPO 2809/2813 1/2SM FG OVC001
     FM281500 16005KT P6SM SCT020=

USA.gov is the U.S. government's official web portal to all federal, state and local government web resources and services.